Abee, Canada
Current Conditions -  °F | °C
As of 11:00 AM on Thursday 23 Oct 2014 (Local Time) from CYED Reporting Station
Broken Clouds Broken Clouds  
Wind Chill: 41°   Ceiling: 16000
Heat Index: 45°   Visibility: 15mi
Dew Point: 34°   Wind: 6mph
Humidity: 66%   Direction: 240°WSW
Pressure: 29.4"   Gusts: NA
Location:  54.23°N, 113.02°W
Report Text: CYED 231700Z 24005KT 15SM BKN160 07/01 A2940 RMK AC6 DA2530FTSLP971
Loading
Personal Weather Stations






























Interactive Weather Map
Tropical Storm Tracking
New forecast layout! Learn more

10-Day Weather Forecast

Advertisements
Track Severe Weather on mobile